Time,TemperatureF,DewpointF,PressureIn,WindDirection,WindDirectionDegrees,WindSpeedMPH,WindSpeedGustMPH,Humidity,HourlyPrecipIn,Conditions,Clouds,dailyrainin,SoftwareType,DateUTC
2013-07-06 00:02:00,76.9,53.9,29.82,WSW,250,8.1,8.1,45,0.00,CLR,,0.00,WeatherDisplay:10.37,2013-07-06 07:02:00,
2013-07-06 00:07:00,76.8,53.2,29.82,West,263,9.2,9.2,44,0.00,CLR,,0.00,WeatherDisplay:10.37,2013-07-06 07:07:00,
2013-07-06 00:12:00,76.7,53.1,29.82,West,281,8.1,8.1,44,0.00,CLR,,0.00,WeatherDisplay:10.37,2013-07-06 07:12:00,
2013-07-06 00:17:00,76.9,53.3,29.82,West,269,8.1,8.1,44,0.00,CLR,,0.00,WeatherDisplay:10.37,2013-07-06 07:17:00,
2013-07-06 00:22:00,77.1,53.5,29.82,WNW,287,6.0,6.0,44,0.00,CLR,,0.00,WeatherDisplay:10.37,2013-07-06 07:22:00,
2013-07-06 00:27:00,77.3,53.7,29.82,WNW,294,6.9,6.9,44,0.00,CLR,,0.00,WeatherDisplay:10.37,2013-07-06 07:27:00,
2013-07-06 00:32:00,77.2,53.6,29.82,West,263,4.6,4.6,44,0.00,CLR,,0.00,WeatherDisplay:10.37,2013-07-06 07:32:00,
2013-07-06 00:37:00,77.0,53.4,29.83,West,264,7.0,7.0,44,0.00,CLR,,0.00,WeatherDisplay:10.37,2013-07-06 07:37:00,
2013-07-06 00:42:00,77.0,53.4,29.83,West,264,6.0,6.0,44,0.00,CLR,,0.00,WeatherDisplay:10.37,2013-07-06 07:42:00,
2013-07-06 00:47:00,77.0,52.8,29.82,WNW,290,6.0,6.3,43,0.00,CLR,,0.00,WeatherDisplay:10.37,2013-07-06 07:47:00,
2013-07-06 00:52:00,77.0,52.8,29.82,West,269,9.2,9.2,43,0.00,CLR,,0.00,WeatherDisplay:10.37,2013-07-06 07:52:00,
2013-07-06 00:57:00,76.9,52.7,29.82,West,279,9.2,9.2,43,0.00,CLR,,0.00,WeatherDisplay:10.37,2013-07-06 07:57:00,
2013-07-06 01:02:00,76.9,52.7,29.82,West,267,9.2,9.2,43,0.00,CLR,,0.00,WeatherDisplay:10.37,2013-07-06 08:02:00,
2013-07-06 01:07:00,76.7,52.5,29.82,WSW,246,5.8,5.8,43,0.00,CLR,,0.00,WeatherDisplay:10.37,2013-07-06 08:07:00,
2013-07-06 01:12:00,76.4,52.2,29.82,WSW,257,5.8,5.8,43,0.00,CLR,,0.00,WeatherDisplay:10.37,2013-07-06 08:12:00,
2013-07-06 01:17:00,76.1,52.6,29.82,WSW,257,6.0,6.0,44,0.00,CLR,,0.00,WeatherDisplay:10.37,2013-07-06 08:17:00,
2013-07-06 01:22:00,75.8,52.3,29.82,WSW,257,4.6,4.6,44,0.00,CLR,,0.00,WeatherDisplay:10.37,2013-07-06 08:22:00,
2013-07-06 01:27:00,75.5,52.1,29.82,WSW,257,5.0,5.0,44,0.00,CLR,,0.00,WeatherDisplay:10.37,2013-07-06 08:27:00,
2013-07-06 01:32:00,75.4,52.6,29.82,WSW,256,6.9,6.9,45,0.00,CLR,,0.00,WeatherDisplay:10.37,2013-07-06 08:32:00,
2013-07-06 01:37:00,75.4,52.6,29.82,SW,230,5.8,5.8,45,0.00,CLR,,0.00,WeatherDisplay:10.37,2013-07-06 08:37:00,
2013-07-06 01:42:00,75.3,51.9,29.82,SW,231,4.6,4.6,44,0.00,CLR,,0.00,WeatherDisplay:10.37,2013-07-06 08:42:00,
2013-07-06 01:47:00,75.1,52.3,29.82,SW,231,3.5,3.5,45,0.00,CLR,,0.00,WeatherDisplay:10.37,2013-07-06 08:47:00,
2013-07-06 01:52:00,74.9,52.1,29.82,SW,230,0.0,0.0,45,0.00,CLR,,0.00,WeatherDisplay:10.37,2013-07-06 08:52:00,
2013-07-06 01:57:00,75.1,52.3,29.82,SW,231,5.0,5.0,45,0.00,CLR,,0.00,WeatherDisplay:10.37,2013-07-06 08:57:00,
2013-07-06 02:02:00,75.5,52.7,29.82,SW,231,3.5,3.5,45,0.00,CLR,,0.00,WeatherDisplay:10.37,2013-07-06 09:02:00,
2013-07-06 02:07:00,75.5,52.7,29.82,SW,231,4.0,4.0,45,0.00,CLR,,0.00,WeatherDisplay:10.37,2013-07-06 09:07:00,
2013-07-06 02:12:00,75.4,52.0,29.81,SW,230,4.6,4.6,44,0.00,CLR,,0.00,WeatherDisplay:10.37,2013-07-06 09:12:00,
2013-07-06 02:17:00,75.4,52.0,29.81,SW,231,4.0,4.0,44,0.00,CLR,,0.00,WeatherDisplay:10.37,2013-07-06 09:17:00,
2013-07-06 02:22:00,75.5,52.1,29.81,SW,231,4.0,4.0,44,0.00,CLR,,0.00,WeatherDisplay:10.37,2013-07-06 09:22:00,
2013-07-06 02:27:00,75.5,52.1,29.81,SW,231,4.6,4.6,44,0.00,CLR,,0.00,WeatherDisplay:10.37,2013-07-06 09:27:00,
2013-07-06 02:32:00,75.5,52.1,29.81,SW,230,4.6,4.6,44,0.00,CLR,,0.00,WeatherDisplay:10.37,2013-07-06 09:32:00,
2013-07-06 02:37:00,75.2,51.8,29.81,SW,232,5.0,5.0,44,0.00,CLR,,0.00,WeatherDisplay:10.37,2013-07-06 09:37:00,
2013-07-06 02:42:00,74.8,51.4,29.81,WSW,245,6.0,6.0,44,0.00,CLR,,0.00,WeatherDisplay:10.37,2013-07-06 09:42:00,
2013-07-06 02:47:00,74.4,51.1,29.81,WSW,245,5.8,5.8,44,0.00,CLR,,0.00,WeatherDisplay:10.37,2013-07-06 09:47:00,
2013-07-06 02:52:00,74.0,51.3,29.81,WSW,245,4.6,4.6,45,0.00,CLR,,0.00,WeatherDisplay:10.37,2013-07-06 09:52:00,
2013-07-06 02:57:00,73.8,51.1,29.81,WSW,246,3.5,3.5,45,0.00,CLR,,0.00,WeatherDisplay:10.37,2013-07-06 09:57:00,
2013-07-06 03:02:00,73.7,51.0,29.81,WSW,246,3.5,3.5,45,0.00,CLR,,0.00,WeatherDisplay:10.37,2013-07-06 10:02:00,
2013-07-06 03:07:00,73.5,50.9,29.81,WSW,245,4.6,4.6,45,0.00,CLR,,0.00,WeatherDisplay:10.37,2013-07-06 10:07:00,
2013-07-06 03:12:00,73.2,50.6,29.81,WSW,246,7.0,7.0,45,0.00,CLR,,0.00,WeatherDisplay:10.37,2013-07-06 10:12:00,
2013-07-06 03:17:00,73.4,50.8,29.81,West,264,9.2,9.2,45,0.00,CLR,,0.00,WeatherDisplay:10.37,2013-07-06 10:17:00,
2013-07-06 03:22:00,73.7,51.0,29.81,West,276,9.2,9.2,45,0.00,CLR,,0.00,WeatherDisplay:10.37,2013-07-06 10:22:00,
2013-07-06 03:27:00,73.9,51.2,29.80,West,275,9.2,9.2,45,0.00,CLR,,0.00,WeatherDisplay:10.37,2013-07-06 10:27:00,
2013-07-06 03:32:00,74.0,51.3,29.80,WNW,283,10.4,10.4,45,0.00,CLR,,0.00,WeatherDisplay:10.37,2013-07-06 10:32:00,
2013-07-06 03:37:00,74.2,51.5,29.80,West,280,8.1,8.1,45,0.00,CLR,,0.00,WeatherDisplay:10.37,2013-07-06 10:37:00,
2013-07-06 03:42:00,74.4,51.1,29.80,West,279,9.2,9.2,44,0.00,CLR,,0.00,WeatherDisplay:10.37,2013-07-06 10:42:00,
2013-07-06 03:47:00,74.5,51.2,29.80,WNW,282,11.5,11.5,44,0.00,CLR,,0.00,WeatherDisplay:10.37,2013-07-06 10:47:00,
2013-07-06 03:52:00,74.6,51.2,29.80,West,268,6.9,6.9,44,0.00,CLR,,0.00,WeatherDisplay:10.37,2013-07-06 10:52:00,
2013-07-06 03:57:00,74.5,51.2,29.80,West,269,6.9,6.9,44,0.00,CLR,,0.00,WeatherDisplay:10.37,2013-07-06 10:57:00,
2013-07-06 04:02:00,74.4,51.1,29.80,West,269,5.8,5.8,44,0.00,CLR,,0.00,WeatherDisplay:10.37,2013-07-06 11:02:00,
2013-07-06 04:07:00,74.3,51.0,29.80,West,268,5.0,5.0,44,0.00,CLR,,0.00,WeatherDisplay:10.37,2013-07-06 11:07:00,
2013-07-06 04:12:00,74.1,51.4,29.80,West,268,5.0,5.0,45,0.00,CLR,,0.00,WeatherDisplay:10.37,2013-07-06 11:12:00,
2013-07-06 04:17:00,74.0,51.3,29.80,West,268,4.6,4.6,45,0.00,CLR,,0.00,WeatherDisplay:10.37,2013-07-06 11:17:00,
2013-07-06 04:22:00,73.5,50.9,29.80,West,268,3.5,3.5,45,0.00,CLR,,0.00,WeatherDisplay:10.37,2013-07-06 11:22:00,
2013-07-06 04:27:00,72.8,50.8,29.80,West,268,3.5,3.5,46,0.00,CLR,,0.00,WeatherDisplay:10.37,2013-07-06 11:27:00,
2013-07-06 04:32:00,72.4,51.0,29.80,West,268,2.3,2.3,47,0.00,CLR,,0.00,WeatherDisplay:10.37,2013-07-06 11:32:00,
2013-07-06 04:37:00,72.3,50.9,29.80,West,268,3.5,3.5,47,0.00,CLR,,0.00,WeatherDisplay:10.37,2013-07-06 11:37:00,
2013-07-06 04:42:00,72.3,50.9,29.80,West,268,0.0,0.0,47,0.00,CLR,,0.00,WeatherDisplay:10.37,2013-07-06 11:42:00,
2013-07-06 04:47:00,72.3,50.9,29.80,West,268,1.2,0.0,47,0.00,CLR,,0.00,WeatherDisplay:10.37,2013-07-06 11:47:00,
2013-07-06 04:52:00,72.2,50.8,29.80,West,268,0.0,0.0,47,0.00,CLR,,0.00,WeatherDisplay:10.37,2013-07-06 11:52:00,
2013-07-06 04:57:00,72.0,50.7,29.80,West,268,2.3,2.3,47,0.00,CLR,,0.00,WeatherDisplay:10.37,2013-07-06 11:57:00,
2013-07-06 05:02:00,71.7,50.4,29.80,West,268,5.8,5.8,47,0.00,CLR,,0.00,WeatherDisplay:10.37,2013-07-06 12:02:00,
2013-07-06 05:07:00,72.1,50.2,29.80,West,268,3.0,3.0,46,0.00,CLR,,0.00,WeatherDisplay:10.37,2013-07-06 12:07:00,
2013-07-06 05:12:00,72.1,50.8,29.80,West,268,1.2,0.0,47,0.00,CLR,,0.00,WeatherDisplay:10.37,2013-07-06 12:12:00,
2013-07-06 05:17:00,71.8,50.5,29.80,West,268,0.0,0.0,47,0.00,CLR,,0.00,WeatherDisplay:10.37,2013-07-06 12:17:00,
2013-07-06 05:22:00,71.9,50.6,29.80,West,268,0.0,0.0,47,0.00,CLR,,0.00,WeatherDisplay:10.37,2013-07-06 12:22:00,
2013-07-06 05:27:00,72.0,50.7,29.80,West,268,3.5,3.5,47,0.00,CLR,,0.00,WeatherDisplay:10.37,2013-07-06 12:27:00,
2013-07-06 05:32:00,72.1,50.8,29.81,West,268,3.5,3.5,47,0.00,CLR,,0.00,WeatherDisplay:10.37,2013-07-06 12:32:00,
2013-07-06 05:37:00,71.9,50.6,29.81,West,268,3.5,3.5,47,0.00,CLR,,0.00,WeatherDisplay:10.37,2013-07-06 12:37:00,
2013-07-06 05:42:00,71.8,51.0,29.81,West,268,3.5,3.5,48,0.00,CLR,,0.00,WeatherDisplay:10.37,2013-07-06 12:42:00,
2013-07-06 05:47:00,71.6,51.4,29.81,West,268,2.3,0.0,49,0.00,CLR,,0.00,WeatherDisplay:10.37,2013-07-06 12:47:00,
2013-07-06 05:52:00,71.4,50.7,29.81,West,268,0.0,0.0,48,0.00,CLR,,0.00,WeatherDisplay:10.37,2013-07-06 12:52:00,
2013-07-06 05:58:00,71.2,51.1,29.81,West,268,0.0,0.0,49,0.00,CLR,,0.00,WeatherDisplay:10.37,2013-07-06 12:58:00,
2013-07-06 06:03:00,71.2,51.1,29.81,West,268,0.0,0.0,49,0.00,CLR,,0.00,WeatherDisplay:10.37,2013-07-06 13:03:00,
2013-07-06 06:08:00,71.1,50.4,29.81,West,268,0.0,0.0,48,0.00,CLR,,0.00,WeatherDisplay:10.37,2013-07-06 13:08:00,
2013-07-06 06:13:00,71.0,50.9,29.81,West,268,0.0,0.0,49,0.00,CLR,,0.00,WeatherDisplay:10.37,2013-07-06 13:13:00,
2013-07-06 06:18:00,71.1,51.0,29.81,West,268,0.0,0.0,49,0.00,CLR,,0.00,WeatherDisplay:10.37,2013-07-06 13:18:00,
2013-07-06 06:23:00,71.1,51.0,29.81,West,268,0.0,0.0,49,0.00,CLR,,0.00,WeatherDisplay:10.37,2013-07-06 13:23:00,
2013-07-06 06:28:00,71.3,51.1,29.81,West,268,0.0,0.0,49,0.00,CLR,,0.00,WeatherDisplay:10.37,2013-07-06 13:28:00,
2013-07-06 06:33:00,71.4,51.2,29.81,West,268,0.0,0.0,49,0.00,CLR,,0.00,WeatherDisplay:10.37,2013-07-06 13:33:00,
2013-07-06 06:38:00,71.4,51.2,29.82,West,268,0.0,0.0,49,0.00,CLR,,0.00,WeatherDisplay:10.37,2013-07-06 13:38:00,
2013-07-06 06:39:00,71.3,51.1,29.82,West,268,0.0,0.0,49,0.00,CLR,,0.00,WeatherDisplay:10.37,2013-07-06 13:39:00,
2013-07-06 06:44:00,71.3,51.1,29.81,West,268,0.0,0.0,49,0.00,CLR,,0.00,WeatherDisplay:10.37,2013-07-06 13:44:00,
2013-07-06 06:49:00,71.4,51.2,29.81,West,268,2.3,2.3,49,0.00,CLR,,0.00,WeatherDisplay:10.37,2013-07-06 13:49:00,
2013-07-06 06:54:00,71.8,52.2,29.82,West,268,0.0,0.0,50,0.00,CLR,,0.00,WeatherDisplay:10.37,2013-07-06 13:54:00,
2013-07-06 06:59:00,72.6,52.3,29.82,West,268,0.0,0.0,49,0.00,CLR,,0.00,WeatherDisplay:10.37,2013-07-06 13:59:00,
2013-07-06 07:04:00,73.2,52.3,29.82,West,268,0.0,0.0,48,0.00,CLR,,0.00,WeatherDisplay:10.37,2013-07-06 14:04:00,
2013-07-06 07:09:00,73.7,52.2,29.82,West,268,0.0,0.0,47,0.00,CLR,,0.00,WeatherDisplay:10.37,2013-07-06 14:09:00,
2013-07-06 07:14:00,74.2,52.1,29.82,West,269,3.5,3.5,46,0.00,CLR,,0.00,WeatherDisplay:10.37,2013-07-06 14:14:00,
2013-07-06 07:19:00,74.8,52.6,29.82,West,268,1.2,0.0,46,0.00,CLR,,0.00,WeatherDisplay:10.37,2013-07-06 14:19:00,
2013-07-06 07:24:00,75.4,52.6,29.82,West,268,0.0,0.0,45,0.00,CLR,,0.00,WeatherDisplay:10.37,2013-07-06 14:24:00,
2013-07-06 07:29:00,76.2,52.1,29.82,West,268,0.0,0.0,43,0.00,CLR,,0.00,WeatherDisplay:10.37,2013-07-06 14:29:00,
2013-07-06 07:34:00,76.8,52.6,29.82,West,268,0.0,0.0,43,0.00,CLR,,0.00,WeatherDisplay:10.37,2013-07-06 14:34:00,
2013-07-06 07:39:00,77.3,52.4,29.82,West,268,0.0,0.0,42,0.00,CLR,,0.00,WeatherDisplay:10.37,2013-07-06 14:39:00,
2013-07-06 07:44:00,77.7,52.8,29.82,West,269,2.3,0.0,42,0.00,CLR,,0.00,WeatherDisplay:10.37,2013-07-06 14:44:00,
2013-07-06 07:49:00,78.2,52.6,29.82,West,269,0.0,0.0,41,0.00,CLR,,0.00,WeatherDisplay:10.37,2013-07-06 14:49:00,
2013-07-06 07:54:00,78.8,53.1,29.82,West,268,0.0,0.0,41,0.00,CLR,,0.00,WeatherDisplay:10.37,2013-07-06 14:54:00,
2013-07-06 07:59:00,79.7,52.5,29.82,WSW,251,5.0,5.0,39,0.00,CLR,,0.00,WeatherDisplay:10.37,2013-07-06 14:59:00,
2013-07-06 08:04:00,80.7,52.0,29.82,SW,216,5.8,5.8,37,0.00,CLR,,0.00,WeatherDisplay:10.37,2013-07-06 15:04:00,
2013-07-06 08:09:00,81.6,52.1,29.82,SSW,212,11.5,11.5,36,0.00,CLR,,0.00,WeatherDisplay:10.37,2013-07-06 15:09:00,
2013-07-06 08:14:00,82.2,52.6,29.82,SW,233,11.5,11.5,36,0.00,CLR,,0.00,WeatherDisplay:10.37,2013-07-06 15:14:00,
2013-07-06 08:19:00,82.6,52.2,29.82,WSW,256,9.2,9.2,35,0.00,CLR,,0.00,WeatherDisplay:10.37,2013-07-06 15:19:00,
2013-07-06 08:24:00,83.0,52.5,29.82,SSW,198,4.6,4.6,35,0.00,CLR,,0.00,WeatherDisplay:10.37,2013-07-06 15:24:00,
2013-07-06 08:29:00,83.4,52.1,29.82,SW,232,6.9,6.9,34,0.00,CLR,,0.00,WeatherDisplay:10.37,2013-07-06 15:29:00,
2013-07-06 08:34:00,83.9,51.7,29.82,WSW,245,11.5,11.5,33,0.00,CLR,,0.00,WeatherDisplay:10.37,2013-07-06 15:34:00,
2013-07-06 08:39:00,84.7,51.6,29.82,WSW,249,10.4,10.4,32,0.00,CLR,,0.00,WeatherDisplay:10.37,2013-07-06 15:39:00,
2013-07-06 08:44:00,85.4,52.2,29.82,SW,215,6.0,6.0,32,0.00,CLR,,0.00,WeatherDisplay:10.37,2013-07-06 15:44:00,
2013-07-06 08:49:00,86.3,51.2,29.82,South,189,10.0,10.0,30,0.00,CLR,,0.00,WeatherDisplay:10.37,2013-07-06 15:49:00,
2013-07-06 08:54:00,87.0,50.9,29.82,WSW,240,9.0,9.0,29,0.00,CLR,,0.00,WeatherDisplay:10.37,2013-07-06 15:54:00,
2013-07-06 08:59:00,87.6,50.5,29.82,SSW,213,7.0,7.0,28,0.00,CLR,,0.00,WeatherDisplay:10.37,2013-07-06 15:59:00,
2013-07-06 09:04:00,88.0,50.8,29.82,SSW,198,10.4,10.4,28,0.00,CLR,,0.00,WeatherDisplay:10.37,2013-07-06 16:04:00,
2013-07-06 09:09:00,88.4,51.1,29.82,SSW,196,11.5,11.5,28,0.00,CLR,,0.00,WeatherDisplay:10.37,2013-07-06 16:09:00,
2013-07-06 09:14:00,88.7,50.4,29.82,South,188,11.5,11.5,27,0.00,CLR,,0.00,WeatherDisplay:10.37,2013-07-06 16:14:00,
2013-07-06 09:19:00,89.4,51.0,29.82,SW,227,11.5,11.5,27,0.00,CLR,,0.00,WeatherDisplay:10.37,2013-07-06 16:19:00,
2013-07-06 09:24:00,89.6,51.2,29.82,South,186,11.5,11.5,27,0.00,CLR,,0.00,WeatherDisplay:10.37,2013-07-06 16:24:00,
2013-07-06 09:29:00,90.0,50.5,29.82,South,188,11.5,11.5,26,0.00,CLR,,0.00,WeatherDisplay:10.37,2013-07-06 16:29:00,
2013-07-06 09:35:00,90.4,50.8,29.82,SSW,194,11.5,11.5,26,0.00,CLR,,0.00,WeatherDisplay:10.37,2013-07-06 16:35:00,
2013-07-06 09:40:00,90.5,50.9,29.82,SW,214,11.5,11.5,26,0.00,CLR,,0.00,WeatherDisplay:10.37,2013-07-06 16:40:00,
2013-07-06 09:45:00,91.0,51.4,29.82,SSW,212,10.4,10.4,26,0.00,CLR,,0.00,WeatherDisplay:10.37,2013-07-06 16:45:00,
2013-07-06 09:51:00,91.4,50.6,29.82,SW,233,6.0,6.0,25,0.00,CLR,,0.00,WeatherDisplay:10.37,2013-07-06 16:51:00,
2013-07-06 09:56:00,91.8,51.0,29.82,SSW,198,13.8,13.8,25,0.00,CLR,,0.00,WeatherDisplay:10.37,2013-07-06 16:56:00,
2013-07-06 10:02:00,91.9,51.1,29.82,SW,236,12.7,12.7,25,0.00,CLR,,0.00,WeatherDisplay:10.37,2013-07-06 17:02:00,
2013-07-06 10:07:00,92.2,51.3,29.82,SW,235,15.0,15.0,25,0.00,CLR,,0.00,WeatherDisplay:10.37,2013-07-06 17:07:00,
2013-07-06 10:12:00,92.8,51.8,29.82,SW,221,12.7,12.7,25,0.00,CLR,,0.00,WeatherDisplay:10.37,2013-07-06 17:12:00,
2013-07-06 10:17:00,92.9,50.8,29.82,SSW,198,16.1,16.1,24,0.00,CLR,,0.00,WeatherDisplay:10.37,2013-07-06 17:17:00,
2013-07-06 10:22:00,92.9,50.8,29.82,SSW,198,15.0,15.0,24,0.00,CLR,,0.00,WeatherDisplay:10.37,2013-07-06 17:22:00,
2013-07-06 10:27:00,92.7,50.6,29.82,SSW,201,17.3,17.3,24,0.00,CLR,,0.00,WeatherDisplay:10.37,2013-07-06 17:27:00,
2013-07-06 10:33:00,92.9,50.8,29.82,South,186,19.6,19.6,24,0.00,CLR,,0.00,WeatherDisplay:10.37,2013-07-06 17:33:00,
2013-07-06 10:38:00,92.8,50.7,29.82,SSW,213,16.1,16.1,24,0.00,CLR,,0.00,WeatherDisplay:10.37,2013-07-06 17:38:00,
2013-07-06 10:43:00,92.8,50.7,29.82,SSE,168,12.7,12.7,24,0.00,CLR,,0.00,WeatherDisplay:10.37,2013-07-06 17:43:00,
2013-07-06 10:48:00,93.6,51.4,29.82,SW,217,18.4,18.4,24,0.00,CLR,,0.00,WeatherDisplay:10.37,2013-07-06 17:48:00,
2013-07-06 10:54:00,93.8,52.7,29.82,SSW,192,17.3,17.3,25,0.00,CLR,,0.00,WeatherDisplay:10.37,2013-07-06 17:54:00,
2013-07-06 10:59:00,94.0,52.8,29.82,SSW,213,20.7,20.7,25,0.00,CLR,,0.00,WeatherDisplay:10.37,2013-07-06 17:59:00,
2013-07-06 11:04:00,93.5,51.3,29.82,WSW,250,20.7,20.7,24,0.00,CLR,,0.00,WeatherDisplay:10.37,2013-07-06 18:04:00,
2013-07-06 11:11:00,94.5,52.1,29.82,SSW,211,20.0,20.0,24,0.00,CLR,,0.00,WeatherDisplay:10.37,2013-07-06 18:11:00,
2013-07-06 11:16:00,94.6,51.1,29.82,SW,225,25.0,25.0,23,0.00,CLR,,0.00,WeatherDisplay:10.37,2013-07-06 18:16:00,
2013-07-06 11:22:00,94.3,52.0,29.82,SSW,209,20.7,20.7,24,0.00,CLR,,0.00,WeatherDisplay:10.37,2013-07-06 18:22:00,
2013-07-06 11:27:00,94.5,52.1,29.82,South,183,21.9,21.9,24,0.00,CLR,,0.00,WeatherDisplay:10.37,2013-07-06 18:27:00,
2013-07-06 11:32:00,94.4,50.9,29.82,SW,232,19.0,19.0,23,0.00,CLR,,0.00,WeatherDisplay:10.37,2013-07-06 18:32:00,
2013-07-06 11:38:00,94.7,53.4,29.82,SSW,209,19.6,19.6,25,0.00,CLR,,0.00,WeatherDisplay:10.37,2013-07-06 18:38:00,
2013-07-06 11:43:00,94.6,49.9,29.82,SW,224,25.0,25.0,22,0.00,CLR,,0.00,WeatherDisplay:10.37,2013-07-06 18:43:00,
2013-07-06 11:48:00,95.0,51.4,29.82,SSW,209,24.2,24.2,23,0.00,CLR,,0.00,WeatherDisplay:10.37,2013-07-06 18:48:00,
2013-07-06 11:53:00,95.6,51.9,29.82,SW,217,21.0,21.0,23,0.00,CLR,,0.00,WeatherDisplay:10.37,2013-07-06 18:53:00,
2013-07-06 11:58:00,95.5,48.0,29.82,SW,215,21.9,21.9,20,0.00,CLR,,0.00,WeatherDisplay:10.37,2013-07-06 18:58:00,
2013-07-06 12:03:00,96.0,49.8,29.82,SSW,194,18.4,18.4,21,0.00,CLR,,0.00,WeatherDisplay:10.37,2013-07-06 19:03:00,
2013-07-06 12:08:00,95.8,49.6,29.81,SW,223,20.7,20.7,21,0.00,CLR,,0.00,WeatherDisplay:10.37,2013-07-06 19:08:00,
2013-07-06 12:13:00,95.5,49.4,29.82,SW,232,23.0,23.0,21,0.00,CLR,,0.00,WeatherDisplay:10.37,2013-07-06 19:13:00,
2013-07-06 12:18:00,95.4,49.3,29.82,SW,231,24.2,24.2,21,0.00,CLR,,0.00,WeatherDisplay:10.37,2013-07-06 19:18:00,
2013-07-06 12:23:00,96.2,49.9,29.81,SW,224,17.0,17.0,21,0.00,CLR,,0.00,WeatherDisplay:10.37,2013-07-06 19:23:00,
2013-07-06 12:29:00,96.6,49.0,29.81,SW,234,23.0,23.0,20,0.00,CLR,,0.00,WeatherDisplay:10.37,2013-07-06 19:29:00,
2013-07-06 12:34:00,95.7,49.5,29.81,SW,236,19.6,19.6,21,0.00,CLR,,0.00,WeatherDisplay:10.37,2013-07-06 19:34:00,
2013-07-06 12:39:00,95.6,48.1,29.81,WSW,246,26.5,26.5,20,0.00,CLR,,0.00,WeatherDisplay:10.37,2013-07-06 19:39:00,
2013-07-06 12:44:00,95.5,49.4,29.81,SSW,209,21.9,21.9,21,0.00,CLR,,0.00,WeatherDisplay:10.37,2013-07-06 19:44:00,
2013-07-06 12:50:00,95.5,48.0,29.81,SW,227,26.5,26.5,20,0.00,CLR,,0.00,WeatherDisplay:10.37,2013-07-06 19:50:00,
2013-07-06 12:57:00,95.6,49.4,29.81,SW,221,21.0,21.0,21,0.00,CLR,,0.00,WeatherDisplay:10.37,2013-07-06 19:57:00,
2013-07-06 13:02:00,95.7,49.5,29.81,SW,218,21.0,21.0,21,0.00,CLR,,0.00,WeatherDisplay:10.37,2013-07-06 20:02:00,
2013-07-06 13:07:00,95.5,49.4,29.81,SW,219,21.9,21.9,21,0.00,CLR,,0.00,WeatherDisplay:10.37,2013-07-06 20:07:00,
2013-07-06 13:12:00,95.1,47.7,29.81,WSW,252,23.0,23.0,20,0.00,CLR,,0.00,WeatherDisplay:10.37,2013-07-06 20:12:00,
2013-07-06 13:17:00,95.5,48.0,29.81,SSW,207,24.2,24.2,20,0.00,CLR,,0.00,WeatherDisplay:10.37,2013-07-06 20:17:00,
2013-07-06 13:23:00,95.5,48.0,29.81,WSW,238,18.4,18.4,20,0.00,CLR,,0.00,WeatherDisplay:10.37,2013-07-06 20:23:00,
2013-07-06 13:28:00,95.8,46.9,29.81,SSW,199,20.7,20.7,19,0.00,CLR,,0.00,WeatherDisplay:10.37,2013-07-06 20:28:00,
2013-07-06 13:33:00,95.8,48.3,29.81,SSW,213,23.0,23.0,20,0.00,CLR,,0.00,WeatherDisplay:10.37,2013-07-06 20:33:00,
2013-07-06 13:38:00,95.7,48.2,29.81,SSW,213,25.3,25.3,20,0.00,CLR,,0.00,WeatherDisplay:10.37,2013-07-06 20:38:00,
2013-07-06 13:43:00,96.1,47.2,29.80,SSW,207,25.3,25.3,19,0.00,CLR,,0.00,WeatherDisplay:10.37,2013-07-06 20:43:00,
2013-07-06 13:48:00,96.2,48.6,29.80,SSW,202,25.3,25.3,20,0.00,CLR,,0.00,WeatherDisplay:10.37,2013-07-06 20:48:00,
2013-07-06 13:53:00,96.0,48.5,29.80,SSW,213,23.0,23.0,20,0.00,CLR,,0.00,WeatherDisplay:10.37,2013-07-06 20:53:00,
2013-07-06 13:58:00,96.0,49.8,29.80,SSW,213,26.5,26.5,21,0.00,CLR,,0.00,WeatherDisplay:10.37,2013-07-06 20:58:00,
2013-07-06 14:03:00,97.0,49.3,29.80,SSW,211,20.7,20.7,20,0.00,CLR,,0.00,WeatherDisplay:10.37,2013-07-06 21:03:00,
2013-07-06 14:09:00,97.4,49.6,29.79,SSW,202,19.6,19.6,20,0.00,CLR,,0.00,WeatherDisplay:10.37,2013-07-06 21:09:00,
2013-07-06 14:14:00,97.5,49.7,29.79,SSW,213,23.0,23.0,20,0.00,CLR,,0.00,WeatherDisplay:10.37,2013-07-06 21:14:00,
2013-07-06 14:20:00,97.6,48.4,29.80,WSW,238,24.2,24.2,19,0.00,CLR,,0.00,WeatherDisplay:10.37,2013-07-06 21:20:00,
2013-07-06 14:25:00,97.2,49.4,29.79,WSW,240,20.7,20.7,20,0.00,CLR,,0.00,WeatherDisplay:10.37,2013-07-06 21:25:00,
2013-07-06 14:31:00,97.8,48.6,29.79,SSW,209,23.0,23.0,19,0.00,CLR,,0.00,WeatherDisplay:10.37,2013-07-06 21:31:00,
2013-07-06 14:36:00,97.6,49.8,29.79,SW,219,20.7,20.7,20,0.00,CLR,,0.00,WeatherDisplay:10.37,2013-07-06 21:36:00,
2013-07-06 14:42:00,97.5,48.3,29.79,SSW,213,21.9,21.9,19,0.00,CLR,,0.00,WeatherDisplay:10.37,2013-07-06 21:42:00,
2013-07-06 14:47:00,97.5,51.0,29.79,SW,217,23.0,23.0,21,0.00,CLR,,0.00,WeatherDisplay:10.37,2013-07-06 21:47:00,
2013-07-06 14:52:00,97.0,47.9,29.79,SW,223,20.7,20.7,19,0.00,CLR,,0.00,WeatherDisplay:10.37,2013-07-06 21:52:00,
2013-07-06 14:59:00,97.4,50.9,29.78,SW,218,20.7,20.7,21,0.00,CLR,,0.00,WeatherDisplay:10.37,2013-07-06 21:59:00,
2013-07-06 15:04:00,97.8,49.9,29.78,SSW,202,22.0,22.0,20,0.00,CLR,,0.00,WeatherDisplay:10.37,2013-07-06 22:04:00,
2013-07-06 15:09:00,97.2,50.8,29.78,SSW,211,24.2,24.2,21,0.00,CLR,,0.00,WeatherDisplay:10.37,2013-07-06 22:09:00,
2013-07-06 15:14:00,96.6,50.3,29.78,South,187,23.0,23.0,21,0.00,CLR,,0.00,WeatherDisplay:10.37,2013-07-06 22:14:00,
2013-07-06 15:19:00,96.9,51.8,29.78,SSW,196,24.2,24.2,22,0.00,CLR,,0.00,WeatherDisplay:10.37,2013-07-06 22:19:00,
2013-07-06 15:24:00,97.1,51.9,29.78,SW,225,21.9,21.9,22,0.00,CLR,,0.00,WeatherDisplay:10.37,2013-07-06 22:24:00,
2013-07-06 15:29:00,96.9,51.8,29.77,SW,236,16.1,16.1,22,0.00,CLR,,0.00,WeatherDisplay:10.37,2013-07-06 22:29:00,
2013-07-06 15:34:00,96.5,52.6,29.77,SW,217,21.9,21.9,23,0.00,CLR,,0.00,WeatherDisplay:10.37,2013-07-06 22:34:00,
2013-07-06 15:39:00,96.1,51.1,29.77,WSW,238,23.0,23.0,22,0.00,CLR,,0.00,WeatherDisplay:10.37,2013-07-06 22:39:00,
2013-07-06 15:44:00,96.0,51.0,29.77,SW,215,26.5,26.5,22,0.00,CLR,,0.00,WeatherDisplay:10.37,2013-07-06 22:44:00,
2013-07-06 15:49:00,96.3,48.7,29.77,SSW,213,21.9,21.9,20,0.00,CLR,,0.00,WeatherDisplay:10.37,2013-07-06 22:49:00,
2013-07-06 15:55:00,96.0,51.0,29.77,South,186,24.2,24.2,22,0.00,CLR,,0.00,WeatherDisplay:10.37,2013-07-06 22:55:00,
2013-07-06 16:00:00,96.6,51.5,29.77,SW,219,24.2,24.2,22,0.00,CLR,,0.00,WeatherDisplay:10.37,2013-07-06 23:00:00,
2013-07-06 16:05:00,96.3,51.3,29.77,South,188,20.7,20.7,22,0.00,CLR,,0.00,WeatherDisplay:10.37,2013-07-06 23:05:00,
2013-07-06 16:10:00,96.4,51.4,29.77,SW,225,25.3,25.3,22,0.00,CLR,,0.00,WeatherDisplay:10.37,2013-07-06 23:10:00,
2013-07-06 16:16:00,96.5,50.2,29.77,SSW,213,24.2,24.2,21,0.00,CLR,,0.00,WeatherDisplay:10.37,2013-07-06 23:16:00,
2013-07-06 16:21:00,96.8,51.7,29.76,SSW,213,24.2,24.2,22,0.00,CLR,,0.00,WeatherDisplay:10.37,2013-07-06 23:21:00,
2013-07-06 16:26:00,96.6,52.7,29.76,SW,229,24.2,24.2,23,0.00,CLR,,0.00,WeatherDisplay:10.37,2013-07-06 23:26:00,
2013-07-06 16:32:00,96.7,52.8,29.76,SSW,209,27.6,27.6,23,0.00,CLR,,0.00,WeatherDisplay:10.37,2013-07-06 23:32:00,
2013-07-06 16:37:00,96.4,52.6,29.76,WSW,244,24.2,24.2,23,0.00,CLR,,0.00,WeatherDisplay:10.37,2013-07-06 23:37:00,
2013-07-06 16:42:00,96.7,52.8,29.76,WSW,244,16.1,16.1,23,0.00,CLR,,0.00,WeatherDisplay:10.37,2013-07-06 23:42:00,
2013-07-06 16:47:00,96.8,51.7,29.76,WSW,249,23.0,23.0,22,0.00,CLR,,0.00,WeatherDisplay:10.37,2013-07-06 23:47:00,
2013-07-06 16:52:00,96.5,51.4,29.76,SW,216,18.4,18.4,22,0.00,CLR,,0.00,WeatherDisplay:10.37,2013-07-06 23:52:00,
2013-07-06 16:57:00,96.0,52.2,29.76,SW,223,19.6,19.6,23,0.00,CLR,,0.00,WeatherDisplay:10.37,2013-07-06 23:57:00,
2013-07-06 17:03:00,96.0,52.2,29.76,SW,226,13.8,13.8,23,0.00,CLR,,0.00,WeatherDisplay:10.37,2013-07-07 00:03:00,
2013-07-06 17:08:00,95.9,52.1,29.76,SW,217,23.0,23.0,23,0.00,CLR,,0.00,WeatherDisplay:10.37,2013-07-07 00:08:00,
2013-07-06 17:13:00,95.6,53.1,29.76,SW,224,20.7,20.7,24,0.00,CLR,,0.00,WeatherDisplay:10.37,2013-07-07 00:13:00,
2013-07-06 17:19:00,95.5,53.0,29.76,SW,220,24.2,24.2,24,0.00,CLR,,0.00,WeatherDisplay:10.37,2013-07-07 00:19:00,
2013-07-06 17:24:00,95.5,51.8,29.76,WSW,243,21.9,21.9,23,0.00,CLR,,0.00,WeatherDisplay:10.37,2013-07-07 00:24:00,
2013-07-06 17:29:00,95.7,52.0,29.76,SW,218,20.7,20.7,23,0.00,CLR,,0.00,WeatherDisplay:10.37,2013-07-07 00:29:00,
2013-07-06 17:34:00,94.9,51.3,29.76,WSW,244,25.3,25.3,23,0.00,CLR,,0.00,WeatherDisplay:10.37,2013-07-07 00:34:00,
2013-07-06 17:39:00,94.9,52.5,29.76,WSW,246,21.9,21.9,24,0.00,CLR,,0.00,WeatherDisplay:10.37,2013-07-07 00:39:00,
2013-07-06 17:45:00,94.6,52.2,29.76,SW,230,20.7,20.7,24,0.00,CLR,,0.00,WeatherDisplay:10.37,2013-07-07 00:45:00,
2013-07-06 17:51:00,94.1,52.9,29.76,SW,214,19.6,19.6,25,0.00,CLR,,0.00,WeatherDisplay:10.37,2013-07-07 00:51:00,
2013-07-06 17:56:00,94.0,52.8,29.75,SW,214,23.0,23.0,25,0.00,CLR,,0.00,WeatherDisplay:10.37,2013-07-07 00:56:00,
2013-07-06 18:01:00,93.7,53.6,29.75,SSW,211,23.0,23.0,26,0.00,CLR,,0.00,WeatherDisplay:10.37,2013-07-07 01:01:00,
2013-07-06 18:07:00,93.7,54.7,29.76,SSW,205,21.9,21.9,27,0.00,CLR,,0.00,WeatherDisplay:10.37,2013-07-07 01:07:00,
2013-07-06 18:12:00,93.4,53.4,29.76,SSE,159,24.2,24.2,26,0.00,CLR,,0.00,WeatherDisplay:10.37,2013-07-07 01:12:00,
2013-07-06 18:17:00,93.3,54.3,29.76,SW,230,20.0,20.0,27,0.00,CLR,,0.00,WeatherDisplay:10.37,2013-07-07 01:17:00,
2013-07-06 18:23:00,93.1,49.8,29.76,SSW,202,19.6,19.6,23,0.00,CLR,,0.00,WeatherDisplay:10.37,2013-07-07 01:23:00,
2013-07-06 18:29:00,92.9,50.8,29.76,SW,228,21.9,21.9,24,0.00,CLR,,0.00,WeatherDisplay:10.37,2013-07-07 01:29:00,
2013-07-06 18:34:00,92.3,52.5,29.76,SW,220,21.0,21.0,26,0.00,CLR,,0.00,WeatherDisplay:10.37,2013-07-07 01:34:00,
2013-07-06 18:40:00,92.1,52.3,29.76,SW,232,21.9,21.9,26,0.00,CLR,,0.00,WeatherDisplay:10.37,2013-07-07 01:40:00,
2013-07-06 18:46:00,91.7,53.0,29.76,SW,223,21.9,21.9,27,0.00,CLR,,0.00,WeatherDisplay:10.37,2013-07-07 01:46:00,
2013-07-06 18:52:00,91.2,53.5,29.76,SW,222,21.9,21.9,28,0.00,CLR,,0.00,WeatherDisplay:10.37,2013-07-07 01:52:00,
2013-07-06 18:57:00,90.8,53.2,29.76,SSW,199,22.0,22.0,28,0.00,CLR,,0.00,WeatherDisplay:10.37,2013-07-07 01:57:00,
2013-07-06 19:05:00,90.2,52.7,29.77,SW,236,21.9,21.9,28,0.00,CLR,,0.00,WeatherDisplay:10.37,2013-07-07 02:05:00,
2013-07-06 19:10:00,89.9,53.4,29.77,SW,225,20.7,20.7,29,0.00,CLR,,0.00,WeatherDisplay:10.37,2013-07-07 02:10:00,
2013-07-06 19:15:00,89.4,53.0,29.77,SW,232,20.7,20.7,29,0.00,CLR,,0.00,WeatherDisplay:10.37,2013-07-07 02:15:00,
2013-07-06 19:20:00,89.2,52.8,29.77,SW,227,23.0,23.0,29,0.00,CLR,,0.00,WeatherDisplay:10.37,2013-07-07 02:20:00,
2013-07-06 19:26:00,88.7,53.3,29.77,WSW,242,21.9,21.9,30,0.00,CLR,,0.00,WeatherDisplay:10.37,2013-07-07 02:26:00,
2013-07-06 19:31:00,88.2,52.9,29.78,SW,235,23.0,23.0,30,0.00,CLR,,0.00,WeatherDisplay:10.37,2013-07-07 02:31:00,
2013-07-06 19:37:00,87.6,53.2,29.78,SW,215,20.7,20.7,31,0.00,CLR,,0.00,WeatherDisplay:10.37,2013-07-07 02:37:00,
2013-07-06 19:42:00,87.3,52.1,29.78,SW,216,21.9,21.9,30,0.00,CLR,,0.00,WeatherDisplay:10.37,2013-07-07 02:42:00,
2013-07-06 19:48:00,86.8,51.6,29.78,SW,218,20.0,20.0,30,0.00,CLR,,0.00,WeatherDisplay:10.37,2013-07-07 02:48:00,
2013-07-06 19:56:00,86.3,52.1,29.78,SW,223,17.3,17.3,31,0.00,CLR,,0.00,WeatherDisplay:10.37,2013-07-07 02:56:00,
2013-07-06 20:01:00,85.9,51.8,29.78,SW,225,14.0,14.0,31,0.00,CLR,,0.00,WeatherDisplay:10.37,2013-07-07 03:01:00,
2013-07-06 20:06:00,85.4,52.2,29.78,SW,225,17.3,17.3,32,0.00,CLR,,0.00,WeatherDisplay:10.37,2013-07-07 03:06:00,
2013-07-06 20:11:00,85.1,51.9,29.79,WSW,244,15.0,15.0,32,0.00,CLR,,0.00,WeatherDisplay:10.37,2013-07-07 03:11:00,
2013-07-06 20:16:00,84.8,51.7,29.79,SW,217,14.0,14.0,32,0.00,CLR,,0.00,WeatherDisplay:10.37,2013-07-07 03:16:00,
2013-07-06 20:22:00,84.4,52.1,29.79,SW,215,12.7,12.7,33,0.00,CLR,,0.00,WeatherDisplay:10.37,2013-07-07 03:22:00,
2013-07-06 20:27:00,84.0,51.8,29.80,SW,222,12.7,12.7,33,0.00,CLR,,0.00,WeatherDisplay:10.37,2013-07-07 03:27:00,
2013-07-06 20:33:00,83.6,52.3,29.80,SW,227,14.0,14.0,34,0.00,CLR,,0.00,WeatherDisplay:10.37,2013-07-07 03:33:00,
2013-07-06 20:38:00,83.4,52.1,29.80,SW,227,12.7,12.7,34,0.00,CLR,,0.00,WeatherDisplay:10.37,2013-07-07 03:38:00,
2013-07-06 20:44:00,83.2,51.9,29.80,WSW,238,12.7,12.7,34,0.00,CLR,,0.00,WeatherDisplay:10.37,2013-07-07 03:44:00,
2013-07-06 20:49:00,83.0,51.7,29.80,WSW,248,19.6,19.6,34,0.00,CLR,,0.00,WeatherDisplay:10.37,2013-07-07 03:49:00,
2013-07-06 20:57:00,82.6,52.2,29.80,WSW,254,15.0,15.0,35,0.00,CLR,,0.00,WeatherDisplay:10.37,2013-07-07 03:57:00,
2013-07-06 21:01:00,82.3,51.9,29.80,SSW,206,19.6,19.6,35,0.00,CLR,,0.00,WeatherDisplay:10.37,2013-07-07 04:01:00,
2013-07-06 21:02:00,82.3,51.9,29.80,SSW,211,13.8,13.8,35,0.00,CLR,,0.00,WeatherDisplay:10.37,2013-07-07 04:02:00,
2013-07-06 21:04:00,82.2,51.8,29.80,SSW,198,15.0,15.0,35,0.00,CLR,,0.00,WeatherDisplay:10.37,2013-07-07 04:04:00,
2013-07-06 21:09:00,81.9,52.3,29.80,SW,232,15.0,15.0,36,0.00,CLR,,0.00,WeatherDisplay:10.37,2013-07-07 04:09:00,
2013-07-06 21:14:00,81.7,52.1,29.81,WSW,245,16.1,16.1,36,0.00,CLR,,0.00,WeatherDisplay:10.37,2013-07-07 04:14:00,
2013-07-06 21:19:00,81.6,52.1,29.81,SW,231,13.0,13.0,36,0.00,CLR,,0.00,WeatherDisplay:10.37,2013-07-07 04:19:00,
2013-07-06 21:24:00,81.3,51.8,29.81,WSW,244,11.5,11.5,36,0.00,CLR,,0.00,WeatherDisplay:10.37,2013-07-07 04:24:00,
2013-07-06 21:29:00,81.0,51.5,29.81,WSW,255,12.7,12.7,36,0.00,CLR,,0.00,WeatherDisplay:10.37,2013-07-07 04:29:00,
2013-07-06 21:34:00,80.7,52.0,29.82,West,267,11.5,11.5,37,0.00,CLR,,0.00,WeatherDisplay:10.37,2013-07-07 04:34:00,
2013-07-06 21:39:00,80.3,51.7,29.82,West,271,8.1,8.1,37,0.00,CLR,,0.00,WeatherDisplay:10.37,2013-07-07 04:39:00,
2013-07-06 21:44:00,80.1,52.2,29.82,SW,222,6.0,6.0,38,0.00,CLR,,0.00,WeatherDisplay:10.37,2013-07-07 04:44:00,
2013-07-06 21:49:00,79.8,51.9,29.82,SW,219,9.2,9.2,38,0.00,CLR,,0.00,WeatherDisplay:10.37,2013-07-07 04:49:00,
2013-07-06 21:54:00,79.7,52.5,29.82,SW,217,9.2,9.2,39,0.00,CLR,,0.00,WeatherDisplay:10.37,2013-07-07 04:54:00,
2013-07-06 21:59:00,79.4,52.3,29.82,SSW,202,9.2,9.2,39,0.00,CLR,,0.00,WeatherDisplay:10.37,2013-07-07 04:59:00,
2013-07-06 22:04:00,79.2,52.1,29.82,SW,218,6.9,6.9,39,0.00,CLR,,0.00,WeatherDisplay:10.37,2013-07-07 05:04:00,
2013-07-06 22:09:00,79.0,51.9,29.82,SW,222,10.4,10.4,39,0.00,CLR,,0.00,WeatherDisplay:10.37,2013-07-07 05:09:00,
2013-07-06 22:14:00,78.8,52.4,29.82,SW,215,4.6,4.6,40,0.00,CLR,,0.00,WeatherDisplay:10.37,2013-07-07 05:14:00,
2013-07-06 22:19:00,78.7,52.3,29.82,WSW,257,5.8,5.8,40,0.00,CLR,,0.00,WeatherDisplay:10.37,2013-07-07 05:19:00,
2013-07-06 22:24:00,78.6,52.3,29.83,WSW,248,4.6,4.6,40,0.00,CLR,,0.00,WeatherDisplay:10.37,2013-07-07 05:24:00,
2013-07-06 22:29:00,78.4,52.1,29.82,WSW,249,3.5,3.5,40,0.00,CLR,,0.00,WeatherDisplay:10.37,2013-07-07 05:29:00,
2013-07-06 22:34:00,78.3,52.0,29.82,WSW,249,3.5,3.5,40,0.00,CLR,,0.00,WeatherDisplay:10.37,2013-07-07 05:34:00,
2013-07-06 22:39:00,78.1,51.8,29.82,WSW,249,4.0,4.0,40,0.00,CLR,,0.00,WeatherDisplay:10.37,2013-07-07 05:39:00,
2013-07-06 22:44:00,77.8,50.9,29.82,WSW,249,4.6,4.6,39,0.00,CLR,,0.00,WeatherDisplay:10.37,2013-07-07 05:44:00,
2013-07-06 22:49:00,77.6,50.7,29.82,WSW,248,3.5,3.5,39,0.00,CLR,,0.00,WeatherDisplay:10.37,2013-07-07 05:49:00,
2013-07-06 22:54:00,77.4,51.2,29.82,WSW,248,2.3,2.3,40,0.00,CLR,,0.00,WeatherDisplay:10.37,2013-07-07 05:54:00,
2013-07-06 22:59:00,77.3,51.1,29.82,WSW,248,0.0,0.0,40,0.00,CLR,,0.00,WeatherDisplay:10.37,2013-07-07 05:59:00,
2013-07-06 23:04:00,77.2,51.0,29.83,WSW,248,0.0,0.0,40,0.00,CLR,,0.00,WeatherDisplay:10.37,2013-07-07 06:04:00,
2013-07-06 23:09:00,77.2,51.0,29.83,WSW,248,0.0,0.0,40,0.00,CLR,,0.00,WeatherDisplay:10.37,2013-07-07 06:09:00,
2013-07-06 23:14:00,77.3,51.1,29.83,SW,229,3.5,3.5,40,0.00,CLR,,0.00,WeatherDisplay:10.37,2013-07-07 06:14:00,
2013-07-06 23:19:00,77.5,51.3,29.83,WSW,242,5.8,5.8,40,0.00,CLR,,0.00,WeatherDisplay:10.37,2013-07-07 06:19:00,
2013-07-06 23:24:00,77.5,51.3,29.83,West,261,6.9,6.9,40,0.00,CLR,,0.00,WeatherDisplay:10.37,2013-07-07 06:24:00,
2013-07-06 23:29:00,77.4,51.9,29.82,WSW,240,10.4,10.4,41,0.00,CLR,,0.00,WeatherDisplay:10.37,2013-07-07 06:29:00,
2013-07-06 23:34:00,77.2,51.7,29.82,West,266,10.4,10.4,41,0.00,CLR,,0.00,WeatherDisplay:10.37,2013-07-07 06:34:00,
2013-07-06 23:39:00,76.8,51.3,29.82,West,261,7.0,7.0,41,0.00,CLR,,0.00,WeatherDisplay:10.37,2013-07-07 06:39:00,
2013-07-06 23:44:00,76.6,51.1,29.82,West,267,9.2,9.2,41,0.00,CLR,,0.00,WeatherDisplay:10.37,2013-07-07 06:44:00,
2013-07-06 23:49:00,76.5,51.7,29.82,West,269,9.2,9.2,42,0.00,CLR,,0.00,WeatherDisplay:10.37,2013-07-07 06:49:00,
2013-07-06 23:54:00,76.4,51.6,29.82,WSW,254,9.2,9.2,42,0.00,CLR,,0.00,WeatherDisplay:10.37,2013-07-07 06:54:00,
2013-07-06 23:59:00,76.2,50.8,29.82,West,264,8.1,8.1,41,0.00,CLR,,0.00,WeatherDisplay:10.37,2013-07-07 06:59:00,